createdAt,value
2022-08-23T00:00:35.536Z,18.80
2022-08-23T00:03:15.074Z,18.70
2022-08-23T00:05:48.053Z,18.60
2022-08-23T00:08:27.592Z,18.60
2022-08-23T00:10:59.637Z,18.60
2022-08-23T00:13:47.525Z,18.50
2022-08-23T00:16:19.510Z,18.40
2022-08-23T00:18:49.384Z,18.40
2022-08-23T00:21:18.314Z,18.40
2022-08-23T00:23:47.962Z,18.40
2022-08-23T00:26:16.231Z,18.40
2022-08-23T00:28:44.463Z,18.40
2022-08-23T00:31:12.740Z,18.30
2022-08-23T00:33:40.901Z,18.30
2022-08-23T00:36:09.591Z,18.30
2022-08-23T00:38:38.118Z,18.30
2022-08-23T00:41:07.983Z,18.30
2022-08-23T00:43:56.786Z,18.30
2022-08-23T00:46:55.542Z,18.20
2022-08-23T00:49:24.656Z,18.10
2022-08-23T00:51:58.811Z,18.00
2022-08-23T00:54:29.959Z,18.00
2022-08-23T00:57:10.435Z,18.00
2022-08-23T00:59:43.451Z,18.00
2022-08-23T01:02:17.041Z,18.00
2022-08-23T01:04:52.638Z,17.90
2022-08-23T01:07:32.237Z,17.80
2022-08-23T01:10:09.419Z,17.80
2022-08-23T01:13:06.393Z,17.70
2022-08-23T01:15:40.535Z,17.70
2022-08-23T01:18:12.038Z,17.60
2022-08-23T01:20:47.648Z,17.60
2022-08-23T01:23:29.788Z,17.60
2022-08-23T01:25:59.515Z,17.60
2022-08-23T01:28:30.132Z,17.60
2022-08-23T01:31:01.132Z,17.50
2022-08-23T01:33:31.632Z,17.50
2022-08-23T01:36:00.386Z,17.50
2022-08-23T01:38:35.923Z,17.50
2022-08-23T01:41:04.489Z,17.50
2022-08-23T01:43:35.861Z,17.40
2022-08-23T01:46:10.864Z,17.40
2022-08-23T01:48:39.306Z,17.30
2022-08-23T01:51:08.299Z,17.30
2022-08-23T01:53:43.953Z,17.40
2022-08-23T01:56:12.450Z,17.30
2022-08-23T01:58:45.951Z,17.30
2022-08-23T02:01:16.634Z,17.30
2022-08-23T02:06:28.019Z,17.30
2022-08-23T02:09:18.277Z,17.30
2022-08-23T02:11:49.775Z,17.30
2022-08-23T02:14:21.552Z,17.30
2022-08-23T02:16:58.092Z,17.30
2022-08-23T02:19:34.973Z,17.30
2022-08-23T02:22:06.426Z,17.30
2022-08-23T02:24:43.177Z,17.30
2022-08-23T02:27:18.143Z,17.30
2022-08-23T02:29:49.998Z,17.20
2022-08-23T02:32:27.134Z,17.20
2022-08-23T02:35:04.822Z,17.20
2022-08-23T02:37:35.547Z,17.30
2022-08-23T02:40:10.418Z,17.20
2022-08-23T02:42:40.762Z,17.10
2022-08-23T02:45:10.840Z,17.10
2022-08-23T02:47:40.788Z,17.00
2022-08-23T02:50:25.363Z,17.00
2022-08-23T02:52:57.797Z,17.00
2022-08-23T02:55:29.003Z,17.10
2022-08-23T02:58:00.923Z,17.00
2022-08-23T03:00:32.674Z,16.90
2022-08-23T03:03:05.972Z,16.90
2022-08-23T03:05:34.604Z,16.90
2022-08-23T03:08:03.044Z,16.90
2022-08-23T03:10:38.224Z,16.90
2022-08-23T03:13:15.195Z,16.90
2022-08-23T03:15:43.660Z,16.90
2022-08-23T03:18:13.033Z,16.80
2022-08-23T03:20:44.311Z,16.80
2022-08-23T03:23:13.398Z,16.80
2022-08-23T03:25:45.780Z,16.80
2022-08-23T03:28:15.122Z,16.80
2022-08-23T03:30:46.220Z,16.70
2022-08-23T03:33:16.079Z,16.60
2022-08-23T03:35:45.744Z,16.60
2022-08-23T03:38:14.849Z,16.60
2022-08-23T03:40:47.975Z,16.60
2022-08-23T03:43:17.362Z,16.60
2022-08-23T03:45:47.846Z,16.50
2022-08-23T03:48:17.579Z,16.40
2022-08-23T03:50:49.538Z,16.50
2022-08-23T03:53:18.122Z,16.40
2022-08-23T03:55:49.395Z,16.50
2022-08-23T03:58:18.315Z,16.40
2022-08-23T04:00:46.570Z,16.40
2022-08-23T04:03:14.862Z,16.40
2022-08-23T04:05:46.887Z,16.40
2022-08-23T04:08:18.089Z,16.40
2022-08-23T04:11:05.120Z,16.40
2022-08-23T04:13:34.621Z,16.40
2022-08-23T04:16:07.327Z,16.30
2022-08-23T04:18:36.676Z,16.30
2022-08-23T04:21:15.658Z,16.30
2022-08-23T04:23:44.959Z,16.30
2022-08-23T04:26:19.883Z,16.30
2022-08-23T04:28:49.975Z,16.30
2022-08-23T04:31:20.536Z,16.20
2022-08-23T04:33:53.105Z,16.20
2022-08-23T04:36:30.935Z,16.20
2022-08-23T04:39:03.470Z,16.10
2022-08-23T04:41:53.697Z,16.10
2022-08-23T04:44:26.762Z,16.10
2022-08-23T04:46:55.038Z,16.10
2022-08-23T04:49:25.353Z,16.10
2022-08-23T04:51:55.887Z,16.10
2022-08-23T04:54:28.965Z,16.10
2022-08-23T04:57:01.035Z,16.10
2022-08-23T04:59:29.257Z,16.10
2022-08-23T05:01:58.452Z,16.10
2022-08-23T05:04:26.923Z,16.10
2022-08-23T05:06:57.153Z,16.10
2022-08-23T05:09:27.134Z,16.20
2022-08-23T05:12:00.366Z,16.20
2022-08-23T05:14:32.249Z,16.20
2022-08-23T05:17:09.167Z,16.30
2022-08-23T05:19:39.424Z,16.40
2022-08-23T05:22:12.654Z,16.50
2022-08-23T05:24:41.060Z,16.60
2022-08-23T05:27:13.748Z,16.70
2022-08-23T05:29:43.743Z,16.70
2022-08-23T05:32:14.506Z,16.70
2022-08-23T05:34:44.019Z,16.80
2022-08-23T05:37:15.476Z,16.80
2022-08-23T05:39:47.045Z,16.90
2022-08-23T05:42:18.988Z,17.10
2022-08-23T05:44:47.169Z,17.10
2022-08-23T05:47:33.938Z,17.30
2022-08-23T05:50:04.582Z,17.30
2022-08-23T05:52:34.413Z,17.50
2022-08-23T05:55:04.978Z,17.60
2022-08-23T05:57:37.680Z,17.80
2022-08-23T06:00:11.284Z,17.80
2022-08-23T06:02:39.481Z,18.00
2022-08-23T06:05:09.144Z,18.10
2022-08-23T06:07:40.636Z,18.30
2022-08-23T06:10:18.409Z,18.30
2022-08-23T06:12:48.148Z,18.40
2022-08-23T06:15:16.453Z,18.60
2022-08-23T06:17:45.010Z,18.70
2022-08-23T06:20:15.909Z,18.80
2022-08-23T06:22:45.510Z,18.80
2022-08-23T06:25:16.394Z,18.90
2022-08-23T06:27:47.483Z,19.00
2022-08-23T06:30:16.068Z,19.10
2022-08-23T06:32:45.632Z,19.20
2022-08-23T06:35:32.836Z,19.30
2022-08-23T06:38:04.449Z,19.30
2022-08-23T06:40:32.738Z,19.40
2022-08-23T06:43:06.906Z,19.50
2022-08-23T06:45:36.206Z,19.70
2022-08-23T06:48:06.095Z,19.80
2022-08-23T06:50:47.856Z,19.90
2022-08-23T06:53:19.617Z,20.00
2022-08-23T06:55:49.228Z,20.20
2022-08-23T06:58:19.868Z,20.30
2022-08-23T07:00:48.073Z,20.50
2022-08-23T07:03:36.521Z,20.60
2022-08-23T07:06:06.277Z,20.80
2022-08-23T07:08:34.616Z,20.70
2022-08-23T07:11:07.075Z,20.80
2022-08-23T07:13:36.586Z,20.90
2022-08-23T07:16:06.472Z,21.00
2022-08-23T07:18:38.557Z,21.30
2022-08-23T07:21:08.155Z,21.40
2022-08-23T07:23:37.648Z,21.60
2022-08-23T07:26:10.362Z,21.70
2022-08-23T07:31:31.291Z,21.80
2022-08-23T07:34:03.011Z,22.00
2022-08-23T07:36:33.997Z,22.10
2022-08-23T07:39:05.617Z,22.20
2022-08-23T07:44:27.055Z,22.30
2022-08-23T07:46:57.070Z,22.50
2022-08-23T07:49:36.406Z,22.60
2022-08-23T07:52:12.182Z,22.70
2022-08-23T07:54:42.564Z,22.70
2022-08-23T07:57:20.238Z,22.80
2022-08-23T07:59:52.537Z,23.00
2022-08-23T08:02:24.307Z,23.20
2022-08-23T08:04:53.320Z,23.20
2022-08-23T08:07:21.811Z,23.10
2022-08-23T08:09:51.037Z,23.30
2022-08-23T08:12:23.194Z,23.40
2022-08-23T08:14:53.526Z,23.50
2022-08-23T08:17:27.530Z,23.60
2022-08-23T08:19:57.293Z,23.80
2022-08-23T08:22:26.940Z,23.70
2022-08-23T08:24:55.162Z,23.80
2022-08-23T08:27:23.419Z,23.80
2022-08-23T08:29:52.965Z,23.80
2022-08-23T08:32:21.187Z,23.80
2022-08-23T08:34:49.378Z,24.00
2022-08-23T08:37:17.727Z,24.00
2022-08-23T08:39:46.484Z,24.10
2022-08-23T08:42:31.666Z,24.20
2022-08-23T08:45:06.325Z,24.40
2022-08-23T08:47:41.962Z,24.50
2022-08-23T08:50:17.711Z,24.60
2022-08-23T08:52:50.079Z,24.80
2022-08-23T08:55:21.871Z,24.70
2022-08-23T08:57:54.981Z,24.90
2022-08-23T09:00:27.069Z,25.00
2022-08-23T09:02:55.855Z,24.80
2022-08-23T09:05:26.917Z,24.80
2022-08-23T09:08:17.012Z,25.10
2022-08-23T09:10:54.389Z,25.00
2022-08-23T09:14:09.955Z,25.30
2022-08-23T09:16:53.600Z,25.50
2022-08-23T09:19:33.984Z,25.60
2022-08-23T09:22:09.194Z,25.50
2022-08-23T09:24:37.406Z,25.60
2022-08-23T09:27:09.879Z,25.50
2022-08-23T09:29:41.860Z,25.70
2022-08-23T09:32:30.196Z,25.70
2022-08-23T09:35:09.234Z,25.90
2022-08-23T09:38:06.749Z,26.10
2022-08-23T09:40:41.283Z,26.20
2022-08-23T09:43:15.074Z,26.00
2022-08-23T09:45:54.731Z,26.10
2022-08-23T09:48:38.379Z,26.20
2022-08-23T09:51:17.501Z,26.40
2022-08-23T09:53:50.657Z,26.50
2022-08-23T09:56:26.439Z,26.60
2022-08-23T09:58:55.454Z,26.70
2022-08-23T10:01:26.349Z,26.90
2022-08-23T10:04:12.343Z,27.00
2022-08-23T10:06:41.897Z,26.90
2022-08-23T10:09:19.030Z,26.90
2022-08-23T10:11:47.353Z,26.90
2022-08-23T10:14:18.221Z,27.10
2022-08-23T10:16:58.647Z,27.10
2022-08-23T10:19:37.135Z,27.20
2022-08-23T10:22:11.790Z,27.30
2022-08-23T10:24:44.997Z,27.30
2022-08-23T10:27:47.037Z,27.40
2022-08-23T10:30:17.981Z,27.40
2022-08-23T10:32:54.713Z,27.40
2022-08-23T10:35:33.375Z,27.30
2022-08-23T10:38:24.566Z,27.50
2022-08-23T10:41:02.517Z,27.80
2022-08-23T10:43:40.409Z,27.80
2022-08-23T10:46:09.543Z,27.90
2022-08-23T10:48:43.895Z,28.10
2022-08-23T10:51:22.681Z,28.20
2022-08-23T10:54:00.284Z,28.10
2022-08-23T10:56:29.406Z,28.20
2022-08-23T10:59:00.477Z,28.10
2022-08-23T11:01:46.889Z,28.20
2022-08-23T11:04:23.805Z,28.30
2022-08-23T11:06:56.160Z,28.30
2022-08-23T11:09:50.299Z,28.40
2022-08-23T11:12:26.943Z,28.40
2022-08-23T11:15:11.645Z,28.50
2022-08-23T11:17:55.736Z,28.60
2022-08-23T11:20:57.235Z,28.60
2022-08-23T11:24:19.179Z,28.80
2022-08-23T11:27:07.890Z,29.00
2022-08-23T11:29:47.706Z,29.30
2022-08-23T11:32:43.607Z,29.20
2022-08-23T11:35:29.099Z,29.30
2022-08-23T11:38:14.025Z,29.20
2022-08-23T11:41:01.579Z,29.20
2022-08-23T11:43:34.521Z,29.30
2022-08-23T11:46:27.969Z,29.50
2022-08-23T11:49:13.745Z,29.70
2022-08-23T11:51:49.803Z,29.70
2022-08-23T11:54:45.565Z,29.90
2022-08-23T11:57:24.819Z,30.30
2022-08-23T12:00:17.992Z,30.00
2022-08-23T12:03:02.330Z,30.20
2022-08-23T12:05:58.670Z,30.20
2022-08-23T12:08:50.244Z,30.60
2022-08-23T12:11:20.051Z,30.80
2022-08-23T12:13:56.638Z,31.10
2022-08-23T12:16:36.268Z,31.10
2022-08-23T12:19:13.729Z,30.80
2022-08-23T12:21:47.670Z,31.00
2022-08-23T12:24:30.824Z,30.70
2022-08-23T12:27:12.875Z,30.90
2022-08-23T12:30:06.405Z,31.70
2022-08-23T12:32:42.210Z,31.90
2022-08-23T12:35:30.215Z,31.80
2022-08-23T12:38:05.120Z,31.90
2022-08-23T12:40:44.613Z,32.00
2022-08-23T12:43:22.841Z,31.90
2022-08-23T12:45:54.882Z,31.50
2022-08-23T12:48:26.958Z,31.10
2022-08-23T12:50:56.926Z,31.10
2022-08-23T12:53:30.567Z,31.00
2022-08-23T12:56:03.884Z,30.90
2022-08-23T12:58:35.642Z,30.60
2022-08-23T13:01:08.516Z,30.10
2022-08-23T13:03:41.579Z,29.90
2022-08-23T13:06:13.502Z,29.80
2022-08-23T13:08:44.662Z,29.60
2022-08-23T13:11:14.698Z,29.20
2022-08-23T13:13:44.723Z,29.60
2022-08-23T13:16:30.172Z,30.20
2022-08-23T13:19:16.251Z,30.70
2022-08-23T13:21:45.353Z,31.10
2022-08-23T13:24:37.978Z,31.70
2022-08-23T13:27:16.884Z,32.10
2022-08-23T13:29:57.075Z,31.80
2022-08-23T13:32:30.917Z,32.10
2022-08-23T13:35:40.560Z,32.20
2022-08-23T13:38:21.692Z,32.30
2022-08-23T13:41:00.276Z,31.90
2022-08-23T13:43:33.835Z,32.00
2022-08-23T13:46:13.736Z,32.20
2022-08-23T13:48:49.683Z,32.30
2022-08-23T13:51:30.981Z,32.20
2022-08-23T13:54:01.728Z,32.20
2022-08-23T13:56:33.322Z,32.40
2022-08-23T13:59:05.338Z,32.50
2022-08-23T14:01:33.876Z,32.80
2022-08-23T14:04:03.742Z,32.80
2022-08-23T14:06:32.010Z,33.00
2022-08-23T14:09:00.183Z,32.70
2022-08-23T14:11:28.540Z,32.80
2022-08-23T14:13:59.112Z,32.80
2022-08-23T14:16:34.264Z,32.50
2022-08-23T14:19:54.611Z,33.00
2022-08-23T14:22:02.760Z,33.30
2022-08-23T14:24:33.430Z,33.20
2022-08-23T14:27:10.704Z,32.50
2022-08-23T14:29:39.747Z,32.20
2022-08-23T14:32:08.141Z,32.70
2022-08-23T14:34:37.857Z,32.90
2022-08-23T14:38:02.447Z,32.90
2022-08-23T14:39:55.174Z,32.30
2022-08-23T14:42:24.354Z,32.20
2022-08-23T14:44:52.672Z,32.50
2022-08-23T14:47:20.972Z,32.70
2022-08-23T14:49:53.732Z,32.30
2022-08-23T14:52:22.836Z,32.00
2022-08-23T14:54:51.259Z,32.20
2022-08-23T14:57:19.468Z,32.70
2022-08-23T14:59:47.695Z,33.80
2022-08-23T15:02:25.643Z,34.70
2022-08-23T15:04:59.859Z,34.30
2022-08-23T15:07:28.158Z,34.30
2022-08-23T15:09:59.385Z,34.40
2022-08-23T15:15:25.395Z,33.20
2022-08-23T15:18:00.890Z,32.80
2022-08-23T15:20:42.015Z,32.70
2022-08-23T15:23:10.327Z,32.40
2022-08-23T15:25:41.209Z,32.00
2022-08-23T15:28:13.315Z,31.80
2022-08-23T15:30:42.125Z,31.70
2022-08-23T15:33:10.816Z,31.60
2022-08-23T15:35:43.482Z,31.50
2022-08-23T15:38:12.986Z,31.20
2022-08-23T15:40:41.315Z,31.10
2022-08-23T15:43:09.740Z,30.90
2022-08-23T15:45:38.280Z,30.70
2022-08-23T15:48:13.472Z,30.70
2022-08-23T15:50:46.742Z,30.40
2022-08-23T15:53:15.825Z,30.30
2022-08-23T15:55:45.324Z,30.20
2022-08-23T15:58:17.297Z,30.20
2022-08-23T16:00:46.013Z,30.20
2022-08-23T16:03:19.229Z,30.10
2022-08-23T16:05:53.723Z,30.00
2022-08-23T16:08:25.845Z,30.00
2022-08-23T16:10:54.814Z,30.00
2022-08-23T16:13:23.449Z,30.10
2022-08-23T16:15:52.295Z,30.00
2022-08-23T16:18:20.659Z,29.80
2022-08-23T16:20:54.338Z,29.70
2022-08-23T16:23:23.224Z,29.60
2022-08-23T16:25:51.679Z,29.40
2022-08-23T16:28:19.873Z,29.30
2022-08-23T16:30:48.148Z,29.20
2022-08-23T16:33:16.389Z,29.10
2022-08-23T16:35:44.630Z,28.90
2022-08-23T16:38:14.244Z,28.80
2022-08-23T16:40:42.366Z,28.70
2022-08-23T16:43:10.661Z,28.60
2022-08-23T16:45:38.885Z,28.60
2022-08-23T16:48:08.914Z,28.40
2022-08-23T16:50:38.988Z,28.30
2022-08-23T16:53:07.531Z,28.10
2022-08-23T16:55:37.821Z,28.00
2022-08-23T16:58:07.014Z,28.00
2022-08-23T17:00:35.686Z,27.80
2022-08-23T17:03:06.372Z,27.70
2022-08-23T17:05:35.105Z,27.60
2022-08-23T17:08:03.465Z,27.70
2022-08-23T17:10:31.702Z,27.60
2022-08-23T17:13:02.929Z,27.50
2022-08-23T17:15:33.386Z,27.40
2022-08-23T17:18:01.938Z,27.30
2022-08-23T17:20:32.376Z,27.20
2022-08-23T17:23:00.795Z,27.10
2022-08-23T17:25:34.359Z,26.90
2022-08-23T17:28:04.612Z,26.80
2022-08-23T17:30:34.391Z,26.80
2022-08-23T17:33:02.814Z,26.70
2022-08-23T17:35:33.773Z,26.60
2022-08-23T17:38:03.043Z,26.40
2022-08-23T17:40:34.271Z,26.30
2022-08-23T17:43:04.837Z,26.20
2022-08-23T17:45:38.557Z,26.00
2022-08-23T17:48:07.447Z,25.90
2022-08-23T17:50:35.854Z,25.90
2022-08-23T17:53:14.473Z,25.80
2022-08-23T17:55:45.798Z,25.70
2022-08-23T17:58:20.401Z,25.50
2022-08-23T18:00:50.341Z,25.40
2022-08-23T18:03:22.685Z,25.30
2022-08-23T18:05:58.172Z,25.20
2022-08-23T18:08:29.776Z,25.10
2022-08-23T18:11:03.602Z,24.90
2022-08-23T18:13:39.611Z,24.80
2022-08-23T18:16:10.591Z,24.70
2022-08-23T18:18:40.498Z,24.50
2022-08-23T18:21:15.006Z,24.40
2022-08-23T18:23:45.928Z,24.40
2022-08-23T18:26:29.762Z,24.30
2022-08-23T18:29:06.221Z,24.30
2022-08-23T18:31:38.117Z,24.20
2022-08-23T18:34:07.320Z,24.10
2022-08-23T18:36:45.440Z,24.20
2022-08-23T18:39:17.313Z,24.30
2022-08-23T18:42:02.886Z,24.30
2022-08-23T18:44:44.007Z,24.40
2022-08-23T18:47:15.418Z,24.30
2022-08-23T18:49:46.413Z,24.20
2022-08-23T18:52:16.630Z,24.10
2022-08-23T18:54:46.900Z,24.00
2022-08-23T18:57:16.317Z,23.90
2022-08-23T18:59:45.967Z,23.80
2022-08-23T19:02:18.663Z,23.70
2022-08-23T19:04:47.577Z,23.60
2022-08-23T19:07:16.040Z,23.60
2022-08-23T19:09:44.571Z,23.50
2022-08-23T19:12:12.825Z,23.50
2022-08-23T19:14:40.983Z,23.50
2022-08-23T19:17:10.722Z,23.50
2022-08-23T19:19:38.898Z,23.50
2022-08-23T19:22:07.089Z,23.30
2022-08-23T19:24:35.305Z,23.30
2022-08-23T19:27:03.586Z,23.30
2022-08-23T19:29:33.107Z,23.20
2022-08-23T19:32:01.500Z,23.10
2022-08-23T19:34:31.202Z,22.90
2022-08-23T19:37:01.463Z,22.90
2022-08-23T19:39:30.691Z,22.80
2022-08-23T19:41:59.176Z,22.80
2022-08-23T19:44:28.139Z,22.70
2022-08-23T19:46:56.868Z,22.60
2022-08-23T19:49:25.299Z,22.60
2022-08-23T19:51:54.847Z,22.60
2022-08-23T19:54:23.060Z,22.60
2022-08-23T19:56:57.633Z,22.50
2022-08-23T19:59:27.872Z,22.40
2022-08-23T20:01:57.147Z,22.30
2022-08-23T20:04:26.676Z,22.40
2022-08-23T20:06:57.597Z,22.30
2022-08-23T20:09:26.799Z,22.20
2022-08-23T20:11:55.090Z,22.10
2022-08-23T20:14:25.937Z,22.00
2022-08-23T20:16:55.187Z,21.90
2022-08-23T20:19:24.068Z,21.80
2022-08-23T20:22:15.662Z,21.60
2022-08-23T20:24:53.327Z,21.60
2022-08-23T20:27:24.176Z,21.70
2022-08-23T20:29:59.981Z,21.80
2022-08-23T20:32:28.414Z,21.80
2022-08-23T20:34:56.649Z,21.80
2022-08-23T20:37:25.447Z,21.90
2022-08-23T20:39:55.422Z,21.90
2022-08-23T20:42:24.290Z,21.90
2022-08-23T20:44:52.494Z,21.80
2022-08-23T20:47:20.856Z,21.70
2022-08-23T20:49:49.211Z,21.70
2022-08-23T20:52:18.409Z,21.60
2022-08-23T20:54:46.992Z,21.60
2022-08-23T20:57:21.922Z,21.50
2022-08-23T20:59:53.205Z,21.50
2022-08-23T21:02:35.636Z,21.40
2022-08-23T21:05:09.641Z,21.30
2022-08-23T21:07:38.326Z,21.30
2022-08-23T21:10:17.395Z,21.30
2022-08-23T21:12:49.986Z,21.50
2022-08-23T21:15:26.525Z,21.70
2022-08-23T21:17:57.865Z,21.80
2022-08-23T21:20:29.922Z,21.70
2022-08-23T21:23:06.833Z,21.70
2022-08-23T21:25:37.702Z,21.50
2022-08-23T21:28:08.477Z,21.50
2022-08-23T21:30:38.118Z,21.40
2022-08-23T21:33:09.785Z,21.30
2022-08-23T21:35:39.005Z,21.30
2022-08-23T21:38:09.507Z,21.30
2022-08-23T21:40:38.974Z,21.40
2022-08-23T21:43:08.549Z,21.50
2022-08-23T21:45:43.692Z,21.50
2022-08-23T21:48:14.434Z,21.60
2022-08-23T21:50:45.329Z,21.50
2022-08-23T21:53:15.031Z,21.50
2022-08-23T21:55:46.258Z,21.50
2022-08-23T21:58:15.991Z,21.40
2022-08-23T22:00:50.494Z,21.40
2022-08-23T22:03:18.746Z,21.40
2022-08-23T22:05:48.054Z,21.40
2022-08-23T22:08:16.996Z,21.40
2022-08-23T22:10:57.288Z,21.30
2022-08-23T22:13:28.893Z,21.20
2022-08-23T22:15:57.388Z,21.00
2022-08-23T22:18:25.637Z,21.20
2022-08-23T22:20:53.868Z,21.20
2022-08-23T22:23:22.191Z,21.10
2022-08-23T22:25:50.426Z,20.80
2022-08-23T22:28:18.666Z,20.60
2022-08-23T22:30:48.327Z,20.50
2022-08-23T22:33:16.543Z,20.40
2022-08-23T22:35:48.809Z,20.30
2022-08-23T22:38:18.070Z,20.20
2022-08-23T22:40:50.648Z,20.10
2022-08-23T22:43:19.989Z,20.00
2022-08-23T22:45:54.302Z,19.90
2022-08-23T22:48:23.072Z,19.80
2022-08-23T22:50:51.792Z,19.80
2022-08-23T22:53:20.043Z,19.80
2022-08-23T22:55:52.071Z,19.70
2022-08-23T22:58:20.281Z,19.60
2022-08-23T23:00:48.523Z,19.50
2022-08-23T23:03:18.163Z,19.50
2022-08-23T23:05:46.428Z,19.50
2022-08-23T23:08:29.407Z,19.50
2022-08-23T23:10:58.556Z,19.50
2022-08-23T23:13:29.683Z,19.50
2022-08-23T23:16:06.888Z,19.40
2022-08-23T23:18:43.661Z,19.40
2022-08-23T23:21:13.173Z,19.40
2022-08-23T23:23:41.552Z,19.40
2022-08-23T23:26:15.283Z,19.40
2022-08-23T23:28:44.508Z,19.40
2022-08-23T23:31:13.276Z,19.30
2022-08-23T23:33:42.890Z,19.30
2022-08-23T23:36:11.393Z,19.20
2022-08-23T23:38:45.950Z,19.20
2022-08-23T23:41:14.300Z,19.10
2022-08-23T23:43:42.881Z,19.00
2022-08-23T23:46:14.131Z,18.90
2022-08-23T23:48:46.589Z,18.90
2022-08-23T23:51:17.540Z,18.90
2022-08-23T23:53:45.934Z,18.90
2022-08-23T23:56:15.877Z,18.80
2022-08-23T23:58:44.150Z,18.80
